N750GK KBCT-KHPN
Flight info
| Callsign | N750GK |
|---|---|
| Flight time | 2h 22m |
| Altitude | 390000 |
| Route | TURPS2 LENDS FLRDA SAGGY CHIEZ Q161 KALDA Q108 SIE BOUNO5 |
| Aircraft | C750/M-VGDW/C |
Departure
| Time | 2026-04-24 14:11 |
|---|---|
| Airport | Boca Raton Airport (KBCT) |
Arrival
| Time | 2026-04-24 16:33 |
|---|---|
| Airport | Westchester County Airport (KHPN) |
| Time | Latitude | Longitude | Altitude | Speed | Heading |
|---|---|---|---|---|---|
| 2026-04-24 14:06 | 26.37736 | -80.11053 | 22 ft | 0 kts | 45° |
| 2026-04-24 14:07 | 26.37738 | -80.11050 | 21 ft | 3 kts | 45° |
| 2026-04-24 14:07 | 26.37760 | -80.11026 | 20 ft | 5 kts | 46° |
| 2026-04-24 14:07 | 26.37777 | -80.10989 | 21 ft | 5 kts | 91° |
| 2026-04-24 14:07 | 26.37758 | -80.10977 | 22 ft | 4 kts | 189° |
| 2026-04-24 14:08 | 26.37728 | -80.11003 | 21 ft | 8 kts | 224° |
| 2026-04-24 14:08 | 26.37671 | -80.11065 | 22 ft | 15 kts | 224° |
| 2026-04-24 14:08 | 26.37602 | -80.11141 | 23 ft | 13 kts | 224° |
| 2026-04-24 14:08 | 26.37540 | -80.11208 | 21 ft | 12 kts | 224° |
| 2026-04-24 14:09 | 26.37486 | -80.11266 | 22 ft | 10 kts | 224° |
| 2026-04-24 14:09 | 26.37442 | -80.11314 | 22 ft | 9 kts | 224° |
| 2026-04-24 14:09 | 26.37394 | -80.11367 | 22 ft | 11 kts | 224° |
| 2026-04-24 14:09 | 26.37340 | -80.11425 | 22 ft | 11 kts | 224° |
| 2026-04-24 14:10 | 26.37288 | -80.11472 | 22 ft | 8 kts | 189° |
| 2026-04-24 14:10 | 26.37251 | -80.11431 | 23 ft | 8 kts | 93° |
| 2026-04-24 14:10 | 26.37303 | -80.11364 | 23 ft | 32 kts | 44° |
| 2026-04-24 14:10 | 26.37729 | -80.10900 | 20 ft | 133 kts | 44° |
| 2026-04-24 14:11 | 26.38469 | -80.10088 | 391 ft | 156 kts | 49° |
| 2026-04-24 14:11 | 26.39300 | -80.09277 | 1080 ft | 161 kts | 40° |
| 2026-04-24 14:11 | 26.41314 | -80.07881 | 2659 ft | 184 kts | 33° |
| 2026-04-24 14:12 | 26.42456 | -80.07138 | 3455 ft | 195 kts | 33° |
| 2026-04-24 14:12 | 26.43638 | -80.06350 | 4216 ft | 203 kts | 34° |
| 2026-04-24 14:12 | 26.44916 | -80.05485 | 4699 ft | 227 kts | 33° |
| 2026-04-24 14:12 | 26.46347 | -80.04522 | 5171 ft | 252 kts | 33° |
| 2026-04-24 14:13 | 26.47923 | -80.03469 | 5665 ft | 273 kts | 32° |
| 2026-04-24 14:13 | 26.49528 | -80.02397 | 6610 ft | 272 kts | 31° |
| 2026-04-24 14:13 | 26.51188 | -80.01283 | 7396 ft | 279 kts | 31° |
| 2026-04-24 14:13 | 26.52854 | -80.00163 | 8287 ft | 283 kts | 30° |
| 2026-04-24 14:14 | 26.54557 | -79.99019 | 9255 ft | 288 kts | 29° |
| 2026-04-24 14:14 | 26.56293 | -79.97850 | 10033 ft | 295 kts | 29° |
| 2026-04-24 14:14 | 26.60015 | -79.95272 | 10436 ft | 342 kts | 37° |
| 2026-04-24 14:15 | 26.61509 | -79.93082 | 10545 ft | 366 kts | 65° |
| 2026-04-24 14:15 | 26.62430 | -79.90447 | 11331 ft | 364 kts | 69° |
| 2026-04-24 14:15 | 26.63329 | -79.87770 | 11901 ft | 371 kts | 68° |
| 2026-04-24 14:15 | 26.64287 | -79.85080 | 12512 ft | 375 kts | 68° |
| 2026-04-24 14:16 | 26.65258 | -79.82391 | 13085 ft | 380 kts | 68° |
| 2026-04-24 14:16 | 26.66230 | -79.79623 | 13677 ft | 385 kts | 68° |
| 2026-04-24 14:16 | 26.67208 | -79.76812 | 14167 ft | 391 kts | 68° |
| 2026-04-24 14:17 | 26.70430 | -79.71976 | 15221 ft | 392 kts | 42° |
| 2026-04-24 14:17 | 26.72415 | -79.69861 | 15777 ft | 395 kts | 41° |
| 2026-04-24 14:17 | 26.76410 | -79.65566 | 16947 ft | 401 kts | 42° |
| 2026-04-24 14:18 | 26.78421 | -79.63375 | 17549 ft | 405 kts | 41° |
| 2026-04-24 14:18 | 26.80455 | -79.61182 | 18225 ft | 406 kts | 41° |
| 2026-04-24 14:18 | 26.82501 | -79.58979 | 18795 ft | 409 kts | 41° |
| 2026-04-24 14:18 | 26.84557 | -79.56752 | 19347 ft | 413 kts | 42° |
| 2026-04-24 14:19 | 26.85925 | -79.55267 | 19721 ft | 415 kts | 42° |
| 2026-04-24 14:19 | 26.88689 | -79.52272 | 20475 ft | 420 kts | 41° |
| 2026-04-24 14:19 | 26.90798 | -79.49988 | 21043 ft | 423 kts | 41° |
| 2026-04-24 14:19 | 26.92932 | -79.47673 | 21612 ft | 427 kts | 41° |
| 2026-04-24 14:20 | 26.95077 | -79.45344 | 22173 ft | 431 kts | 41° |
| 2026-04-24 14:20 | 26.97237 | -79.42998 | 22736 ft | 435 kts | 41° |
| 2026-04-24 14:20 | 26.99424 | -79.40623 | 23214 ft | 441 kts | 42° |
| 2026-04-24 14:20 | 27.01639 | -79.38216 | 23737 ft | 444 kts | 42° |
| 2026-04-24 14:21 | 27.03866 | -79.35792 | 24210 ft | 448 kts | 42° |
| 2026-04-24 14:21 | 27.06109 | -79.33350 | 24667 ft | 451 kts | 42° |
| 2026-04-24 14:21 | 27.08369 | -79.30891 | 25199 ft | 452 kts | 42° |
| 2026-04-24 14:21 | 27.10602 | -79.28458 | 25656 ft | 455 kts | 42° |
| 2026-04-24 14:22 | 27.12911 | -79.25938 | 26121 ft | 459 kts | 42° |
| 2026-04-24 14:22 | 27.15177 | -79.23467 | 26570 ft | 462 kts | 42° |
| 2026-04-24 14:22 | 27.19815 | -79.18403 | 27468 ft | 468 kts | 42° |
| 2026-04-24 14:23 | 27.22157 | -79.15843 | 27914 ft | 471 kts | 42° |
| 2026-04-24 14:23 | 27.24514 | -79.13265 | 28358 ft | 474 kts | 42° |
| 2026-04-24 14:23 | 27.26890 | -79.10666 | 28802 ft | 478 kts | 42° |
| 2026-04-24 14:23 | 27.29281 | -79.08047 | 29233 ft | 481 kts | 42° |
| 2026-04-24 14:24 | 27.31687 | -79.05411 | 29656 ft | 484 kts | 42° |
| 2026-04-24 14:24 | 27.34112 | -79.02754 | 29944 ft | 490 kts | 42° |
| 2026-04-24 14:24 | 27.36539 | -79.00105 | 30320 ft | 492 kts | 41° |
| 2026-04-24 14:24 | 27.39229 | -78.97731 | 30635 ft | 492 kts | 31° |
| 2026-04-24 14:25 | 27.41213 | -78.96403 | 30890 ft | 491 kts | 25° |
| 2026-04-24 14:25 | 27.45382 | -78.94508 | 31557 ft | 484 kts | 13° |
| 2026-04-24 14:25 | 27.48650 | -78.93720 | 32108 ft | 477 kts | 4° |
| 2026-04-24 14:25 | 27.51938 | -78.93265 | 32629 ft | 475 kts | 3° |
| 2026-04-24 14:26 | 27.55220 | -78.92804 | 33173 ft | 474 kts | 3° |
| 2026-04-24 14:26 | 27.58486 | -78.92338 | 33721 ft | 472 kts | 3° |
| 2026-04-24 14:26 | 27.61743 | -78.91883 | 34249 ft | 471 kts | 3° |
| 2026-04-24 14:26 | 27.64986 | -78.91436 | 34772 ft | 468 kts | 3° |
| 2026-04-24 14:27 | 27.68212 | -78.90984 | 35268 ft | 466 kts | 3° |
| 2026-04-24 14:27 | 27.71432 | -78.90530 | 35752 ft | 465 kts | 3° |
| 2026-04-24 14:27 | 27.74604 | -78.90085 | 36232 ft | 464 kts | 3° |
| 2026-04-24 14:27 | 27.77802 | -78.89637 | 36729 ft | 462 kts | 3° |
| 2026-04-24 14:28 | 27.80990 | -78.89190 | 37235 ft | 461 kts | 4° |
| 2026-04-24 14:28 | 27.84172 | -78.88742 | 37749 ft | 459 kts | 4° |
| 2026-04-24 14:28 | 27.87338 | -78.88297 | 38268 ft | 458 kts | 4° |
| 2026-04-24 14:28 | 27.90502 | -78.87852 | 38779 ft | 457 kts | 4° |
| 2026-04-24 14:29 | 27.93669 | -78.87407 | 39068 ft | 460 kts | 4° |
| 2026-04-24 14:29 | 28.00160 | -78.86496 | 39070 ft | 480 kts | 4° |
| 2026-04-24 14:30 | 28.05750 | -78.85705 | 39077 ft | 494 kts | 4° |
| 2026-04-24 14:30 | 28.10374 | -78.85054 | 39088 ft | 506 kts | 4° |
| 2026-04-24 14:30 | 28.13891 | -78.84557 | 39083 ft | 512 kts | 4° |
| 2026-04-24 14:31 | 28.20984 | -78.83551 | 39103 ft | 515 kts | 4° |
| 2026-04-24 14:31 | 28.28067 | -78.82549 | 39082 ft | 513 kts | 4° |
| 2026-04-24 14:32 | 28.35115 | -78.81549 | 39079 ft | 513 kts | 4° |
| 2026-04-24 14:32 | 28.42209 | -78.80543 | 39077 ft | 513 kts | 4° |
| 2026-04-24 14:33 | 28.49298 | -78.79534 | 39091 ft | 513 kts | 4° |
| 2026-04-24 14:33 | 28.56364 | -78.78528 | 39079 ft | 512 kts | 4° |
| 2026-04-24 14:34 | 28.63427 | -78.77522 | 39085 ft | 514 kts | 4° |
| 2026-04-24 14:34 | 28.70537 | -78.76507 | 39083 ft | 514 kts | 4° |
| 2026-04-24 14:35 | 28.77619 | -78.75495 | 39081 ft | 514 kts | 4° |
| 2026-04-24 14:35 | 28.84694 | -78.74482 | 39079 ft | 512 kts | 5° |
| 2026-04-24 14:36 | 28.90585 | -78.73638 | 39076 ft | 512 kts | 5° |
| 2026-04-24 14:36 | 28.97663 | -78.72622 | 39076 ft | 512 kts | 5° |
| 2026-04-24 14:37 | 29.04742 | -78.71605 | 39079 ft | 512 kts | 5° |
| 2026-04-24 14:37 | 29.11797 | -78.70589 | 39079 ft | 509 kts | 5° |
| 2026-04-24 14:38 | 29.18840 | -78.69575 | 39084 ft | 510 kts | 5° |
| 2026-04-24 14:38 | 29.25838 | -78.68565 | 39088 ft | 511 kts | 5° |
| 2026-04-24 14:39 | 29.32911 | -78.67544 | 39082 ft | 513 kts | 5° |
| 2026-04-24 14:39 | 29.39944 | -78.66175 | 39074 ft | 513 kts | 11° |
| 2026-04-24 14:40 | 29.46897 | -78.64278 | 39074 ft | 513 kts | 11° |
| 2026-04-24 14:40 | 29.53868 | -78.62492 | 39076 ft | 513 kts | 11° |
| 2026-04-24 14:41 | 29.60823 | -78.60633 | 39079 ft | 513 kts | 11° |
| 2026-04-24 14:41 | 29.67788 | -78.58813 | 39083 ft | 513 kts | 11° |
| 2026-04-24 14:42 | 29.74707 | -78.56978 | 39086 ft | 513 kts | 12° |
| 2026-04-24 14:42 | 29.81666 | -78.55142 | 39090 ft | 513 kts | 11° |
| 2026-04-24 14:43 | 29.88632 | -78.53296 | 39081 ft | 513 kts | 12° |
| 2026-04-24 14:43 | 29.95610 | -78.51446 | 39085 ft | 514 kts | 12° |
| 2026-04-24 14:44 | 30.02584 | -78.49594 | 39085 ft | 514 kts | 12° |
| 2026-04-24 14:44 | 30.09509 | -78.47753 | 39085 ft | 514 kts | 12° |
| 2026-04-24 14:45 | 30.16477 | -78.45897 | 39087 ft | 514 kts | 12° |
| 2026-04-24 14:45 | 30.23454 | -78.44037 | 39080 ft | 514 kts | 12° |
| 2026-04-24 14:46 | 30.30429 | -78.42174 | 39086 ft | 514 kts | 12° |
| 2026-04-24 14:46 | 30.37351 | -78.40323 | 39080 ft | 513 kts | 12° |
| 2026-04-24 14:47 | 30.44323 | -78.38456 | 39095 ft | 513 kts | 12° |
| 2026-04-24 14:47 | 30.51288 | -78.36587 | 39085 ft | 513 kts | 12° |
| 2026-04-24 14:48 | 30.58251 | -78.34717 | 39079 ft | 513 kts | 12° |
| 2026-04-24 14:48 | 30.65211 | -78.32844 | 39079 ft | 513 kts | 12° |
| 2026-04-24 14:49 | 30.72173 | -78.30969 | 39091 ft | 513 kts | 12° |
| 2026-04-24 14:49 | 30.79111 | -78.29096 | 39082 ft | 512 kts | 12° |
| 2026-04-24 14:50 | 30.86012 | -78.27232 | 39086 ft | 512 kts | 12° |
| 2026-04-24 14:50 | 30.92960 | -78.25352 | 39080 ft | 512 kts | 12° |
| 2026-04-24 14:51 | 30.99896 | -78.23472 | 39084 ft | 511 kts | 12° |
| 2026-04-24 14:51 | 31.06833 | -78.21589 | 39079 ft | 511 kts | 12° |
| 2026-04-24 14:52 | 31.13716 | -78.19717 | 39081 ft | 511 kts | 12° |
| 2026-04-24 14:52 | 31.20641 | -78.17832 | 39074 ft | 511 kts | 12° |
| 2026-04-24 14:53 | 31.27574 | -78.15942 | 39075 ft | 511 kts | 12° |
| 2026-04-24 14:53 | 31.34496 | -78.14052 | 39078 ft | 511 kts | 12° |
| 2026-04-24 14:54 | 31.41439 | -78.12153 | 39072 ft | 511 kts | 12° |
| 2026-04-24 14:54 | 31.48438 | -78.10790 | 39059 ft | 510 kts | 6° |
| 2026-04-24 14:55 | 31.54285 | -78.09843 | 39068 ft | 511 kts | 7° |
| 2026-04-24 14:55 | 31.62456 | -78.08403 | 39067 ft | 511 kts | 7° |
| 2026-04-24 14:56 | 31.69494 | -78.07224 | 39067 ft | 511 kts | 7° |
| 2026-04-24 14:56 | 31.76530 | -78.05999 | 39067 ft | 511 kts | 7° |
| 2026-04-24 14:57 | 31.83568 | -78.04802 | 39068 ft | 511 kts | 7° |
| 2026-04-24 14:57 | 31.90600 | -78.03584 | 39068 ft | 511 kts | 7° |
| 2026-04-24 14:58 | 31.97647 | -78.02374 | 39065 ft | 511 kts | 7° |
| 2026-04-24 14:58 | 32.04641 | -78.01164 | 39065 ft | 511 kts | 7° |
| 2026-04-24 14:59 | 32.11680 | -77.99949 | 39060 ft | 511 kts | 7° |
| 2026-04-24 14:59 | 32.18720 | -77.98728 | 39058 ft | 511 kts | 7° |
| 2026-04-24 15:00 | 32.25754 | -77.97510 | 39057 ft | 511 kts | 7° |
| 2026-04-24 15:00 | 32.32751 | -77.96294 | 39059 ft | 510 kts | 6° |
| 2026-04-24 15:01 | 32.39773 | -77.95072 | 39055 ft | 509 kts | 6° |
| 2026-04-24 15:01 | 32.46794 | -77.93849 | 39055 ft | 510 kts | 6° |
| 2026-04-24 15:02 | 32.53827 | -77.92622 | 39055 ft | 510 kts | 6° |
| 2026-04-24 15:02 | 32.60853 | -77.91393 | 39051 ft | 510 kts | 6° |
| 2026-04-24 15:03 | 32.67873 | -77.90165 | 39048 ft | 510 kts | 6° |
| 2026-04-24 15:03 | 32.74859 | -77.88939 | 39048 ft | 510 kts | 6° |
| 2026-04-24 15:04 | 32.81884 | -77.87706 | 39045 ft | 510 kts | 6° |
| 2026-04-24 15:04 | 32.88904 | -77.86471 | 39046 ft | 510 kts | 6° |
| 2026-04-24 15:05 | 32.95890 | -77.85240 | 39045 ft | 510 kts | 6° |
| 2026-04-24 15:05 | 33.02918 | -77.84000 | 39046 ft | 510 kts | 6° |
| 2026-04-24 15:06 | 33.09946 | -77.82757 | 39044 ft | 510 kts | 6° |
| 2026-04-24 15:06 | 33.16921 | -77.81523 | 39041 ft | 509 kts | 6° |
| 2026-04-24 15:07 | 33.23934 | -77.80280 | 39038 ft | 510 kts | 6° |
| 2026-04-24 15:07 | 33.30952 | -77.79032 | 39033 ft | 510 kts | 6° |
| 2026-04-24 15:08 | 33.37976 | -77.77784 | 39034 ft | 510 kts | 6° |
| 2026-04-24 15:08 | 33.44999 | -77.76532 | 39030 ft | 510 kts | 6° |
| 2026-04-24 15:09 | 33.52017 | -77.75279 | 39031 ft | 510 kts | 6° |
| 2026-04-24 15:09 | 33.59040 | -77.74024 | 39027 ft | 510 kts | 6° |
| 2026-04-24 15:10 | 33.66018 | -77.72774 | 39022 ft | 510 kts | 6° |
| 2026-04-24 15:10 | 33.73015 | -77.71338 | 39016 ft | 510 kts | 8° |
| 2026-04-24 15:11 | 33.80008 | -77.69830 | 39020 ft | 510 kts | 7° |
| 2026-04-24 15:11 | 33.87012 | -77.68297 | 39023 ft | 511 kts | 7° |
| 2026-04-24 15:12 | 33.93961 | -77.66783 | 39011 ft | 510 kts | 7° |
| 2026-04-24 15:12 | 34.04471 | -77.64481 | 39009 ft | 510 kts | 7° |
| 2026-04-24 15:13 | 34.11413 | -77.62962 | 39010 ft | 510 kts | 7° |
| 2026-04-24 15:13 | 34.18403 | -77.61425 | 39004 ft | 510 kts | 7° |
| 2026-04-24 15:14 | 34.25395 | -77.59888 | 39001 ft | 510 kts | 7° |
| 2026-04-24 15:14 | 34.32341 | -77.58357 | 38998 ft | 510 kts | 7° |
| 2026-04-24 15:15 | 34.39318 | -77.56817 | 38998 ft | 508 kts | 7° |
| 2026-04-24 15:15 | 34.46293 | -77.55275 | 38992 ft | 509 kts | 7° |
| 2026-04-24 15:16 | 34.53195 | -77.53208 | 38974 ft | 514 kts | 18° |
| 2026-04-24 15:16 | 34.59618 | -77.49391 | 38986 ft | 518 kts | 24° |
| 2026-04-24 15:17 | 34.66069 | -77.45529 | 38989 ft | 516 kts | 21° |
| 2026-04-24 15:17 | 34.72537 | -77.41672 | 38984 ft | 517 kts | 23° |
| 2026-04-24 15:18 | 34.78986 | -77.37770 | 38985 ft | 517 kts | 22° |
| 2026-04-24 15:18 | 34.85448 | -77.33911 | 38985 ft | 518 kts | 22° |
| 2026-04-24 15:19 | 34.91887 | -77.30004 | 38982 ft | 517 kts | 22° |
| 2026-04-24 15:19 | 34.98298 | -77.26153 | 38984 ft | 517 kts | 22° |
| 2026-04-24 15:20 | 35.04742 | -77.22241 | 38992 ft | 517 kts | 22° |
| 2026-04-24 15:20 | 35.11190 | -77.18343 | 38985 ft | 516 kts | 22° |
| 2026-04-24 15:21 | 35.17629 | -77.14430 | 38969 ft | 517 kts | 22° |
| 2026-04-24 15:21 | 35.24075 | -77.10511 | 38966 ft | 517 kts | 22° |
| 2026-04-24 15:22 | 35.30476 | -77.06611 | 38955 ft | 517 kts | 22° |
| 2026-04-24 15:23 | 35.40136 | -77.00713 | 38953 ft | 517 kts | 22° |
| 2026-04-24 15:23 | 35.49790 | -76.94803 | 38957 ft | 517 kts | 22° |
| 2026-04-24 15:25 | 35.64712 | -76.85362 | 38958 ft | 518 kts | 24° |
| 2026-04-24 15:26 | 35.80584 | -76.74958 | 38946 ft | 518 kts | 24° |
| 2026-04-24 15:27 | 35.99652 | -76.62378 | 38967 ft | 518 kts | 24° |
| 2026-04-24 15:29 | 36.18732 | -76.49722 | 38946 ft | 519 kts | 24° |
| 2026-04-24 15:31 | 36.40973 | -76.34881 | 38919 ft | 519 kts | 24° |
| 2026-04-24 15:33 | 36.66435 | -76.17769 | 38928 ft | 520 kts | 23° |
| 2026-04-24 15:34 | 36.82326 | -76.07025 | 38901 ft | 521 kts | 23° |
| 2026-04-24 15:35 | 36.98208 | -75.96234 | 38903 ft | 518 kts | 23° |
| 2026-04-24 15:36 | 37.04551 | -75.91909 | 38902 ft | 519 kts | 23° |
| 2026-04-24 15:36 | 37.11048 | -75.88175 | 38891 ft | 508 kts | 12° |
| 2026-04-24 15:36 | 37.14387 | -75.87035 | 38894 ft | 503 kts | 9° |
| 2026-04-24 15:37 | 37.21154 | -75.84716 | 38893 ft | 504 kts | 10° |
| 2026-04-24 15:37 | 37.27917 | -75.82343 | 38896 ft | 504 kts | 10° |
| 2026-04-24 15:38 | 37.34689 | -75.80009 | 38894 ft | 502 kts | 10° |
| 2026-04-24 15:38 | 37.41394 | -75.77657 | 38891 ft | 500 kts | 10° |
| 2026-04-24 15:39 | 37.48103 | -75.75327 | 38893 ft | 500 kts | 10° |
| 2026-04-24 15:39 | 37.54758 | -75.72992 | 38898 ft | 500 kts | 10° |
| 2026-04-24 15:40 | 37.61465 | -75.70647 | 38899 ft | 500 kts | 10° |
| 2026-04-24 15:40 | 37.68176 | -75.68289 | 38899 ft | 500 kts | 10° |
| 2026-04-24 15:41 | 37.74876 | -75.65934 | 38897 ft | 500 kts | 10° |
| 2026-04-24 15:41 | 37.81571 | -75.63537 | 38887 ft | 499 kts | 12° |
| 2026-04-24 15:42 | 37.87876 | -75.59577 | 38893 ft | 513 kts | 27° |
| 2026-04-24 15:42 | 37.93793 | -75.54578 | 38900 ft | 514 kts | 27° |
| 2026-04-24 15:43 | 37.99767 | -75.49569 | 38894 ft | 514 kts | 27° |
| 2026-04-24 15:43 | 38.05713 | -75.44537 | 38884 ft | 513 kts | 27° |
| 2026-04-24 15:44 | 38.11664 | -75.39517 | 38892 ft | 513 kts | 27° |
| 2026-04-24 15:44 | 38.17604 | -75.34478 | 38897 ft | 514 kts | 27° |
| 2026-04-24 15:45 | 38.23655 | -75.29722 | 38890 ft | 506 kts | 19° |
| 2026-04-24 15:45 | 38.30214 | -75.27054 | 38896 ft | 492 kts | 5° |
| 2026-04-24 15:46 | 38.36975 | -75.25659 | 38915 ft | 492 kts | 4° |
| 2026-04-24 15:46 | 38.43742 | -75.24218 | 38908 ft | 493 kts | 4° |
| 2026-04-24 15:47 | 38.50511 | -75.22808 | 38909 ft | 493 kts | 4° |
| 2026-04-24 15:47 | 38.57277 | -75.21376 | 38909 ft | 493 kts | 4° |
| 2026-04-24 15:48 | 38.64039 | -75.19952 | 38930 ft | 492 kts | 4° |
| 2026-04-24 15:48 | 38.70659 | -75.17362 | 38904 ft | 505 kts | 19° |
| 2026-04-24 15:49 | 38.76610 | -75.12491 | 38913 ft | 516 kts | 32° |
| 2026-04-24 15:49 | 38.82313 | -75.06892 | 38916 ft | 516 kts | 32° |
| 2026-04-24 15:50 | 38.88028 | -75.01287 | 38911 ft | 516 kts | 32° |
| 2026-04-24 15:50 | 38.93704 | -74.95692 | 38919 ft | 516 kts | 32° |
| 2026-04-24 15:51 | 38.99419 | -74.90062 | 38915 ft | 517 kts | 32° |
| 2026-04-24 15:51 | 39.05117 | -74.84426 | 38922 ft | 518 kts | 32° |
| 2026-04-24 15:52 | 39.10818 | -74.78724 | 38915 ft | 520 kts | 33° |
| 2026-04-24 15:52 | 39.16418 | -74.72936 | 38910 ft | 519 kts | 33° |
| 2026-04-24 15:53 | 39.22062 | -74.67098 | 38903 ft | 520 kts | 33° |
| 2026-04-24 15:53 | 39.27708 | -74.61226 | 38898 ft | 521 kts | 33° |
| 2026-04-24 15:54 | 39.33371 | -74.55343 | 38897 ft | 522 kts | 33° |
| 2026-04-24 15:54 | 39.38982 | -74.49486 | 38903 ft | 522 kts | 33° |
| 2026-04-24 15:55 | 39.44634 | -74.43585 | 38901 ft | 523 kts | 33° |
| 2026-04-24 15:55 | 39.50221 | -74.37721 | 38141 ft | 502 kts | 33° |
| 2026-04-24 15:56 | 39.52891 | -74.34916 | 37511 ft | 485 kts | 32° |
| 2026-04-24 15:56 | 39.55476 | -74.32207 | 36868 ft | 469 kts | 32° |
| 2026-04-24 15:56 | 39.57945 | -74.29617 | 36271 ft | 457 kts | 32° |
| 2026-04-24 15:56 | 39.60429 | -74.27008 | 35670 ft | 451 kts | 32° |
| 2026-04-24 15:57 | 39.62830 | -74.24484 | 35089 ft | 450 kts | 32° |
| 2026-04-24 15:57 | 39.65268 | -74.21918 | 34493 ft | 451 kts | 32° |
| 2026-04-24 15:57 | 39.66910 | -74.20185 | 34094 ft | 451 kts | 32° |
| 2026-04-24 15:57 | 39.70129 | -74.16784 | 33274 ft | 451 kts | 32° |
| 2026-04-24 15:58 | 39.72570 | -74.14209 | 32677 ft | 454 kts | 32° |
| 2026-04-24 15:58 | 39.75028 | -74.11612 | 32076 ft | 457 kts | 32° |
| 2026-04-24 15:58 | 39.77499 | -74.08992 | 31469 ft | 459 kts | 32° |
| 2026-04-24 15:58 | 39.79982 | -74.06359 | 30869 ft | 461 kts | 32° |
| 2026-04-24 15:59 | 39.82478 | -74.03713 | 30260 ft | 462 kts | 32° |
| 2026-04-24 15:59 | 39.84958 | -74.01076 | 29610 ft | 457 kts | 32° |
| 2026-04-24 15:59 | 39.87416 | -73.98461 | 29008 ft | 455 kts | 32° |
| 2026-04-24 15:59 | 39.89822 | -73.95903 | 28421 ft | 450 kts | 32° |
| 2026-04-24 16:00 | 39.92264 | -73.93303 | 27824 ft | 446 kts | 32° |
| 2026-04-24 16:00 | 39.94626 | -73.90785 | 27248 ft | 442 kts | 32° |
| 2026-04-24 16:00 | 39.96998 | -73.88255 | 26668 ft | 438 kts | 32° |
| 2026-04-24 16:00 | 39.99346 | -73.85747 | 26121 ft | 434 kts | 32° |
| 2026-04-24 16:01 | 40.01670 | -73.83264 | 25522 ft | 430 kts | 32° |
| 2026-04-24 16:01 | 40.03976 | -73.80797 | 24955 ft | 427 kts | 31° |
| 2026-04-24 16:01 | 40.06266 | -73.78346 | 24397 ft | 424 kts | 32° |
| 2026-04-24 16:01 | 40.08537 | -73.75911 | 23840 ft | 421 kts | 32° |
| 2026-04-24 16:02 | 40.10792 | -73.73492 | 23250 ft | 417 kts | 32° |
| 2026-04-24 16:02 | 40.13030 | -73.71089 | 22690 ft | 415 kts | 32° |
| 2026-04-24 16:02 | 40.15252 | -73.68701 | 22146 ft | 413 kts | 32° |
| 2026-04-24 16:02 | 40.17464 | -73.66320 | 21602 ft | 410 kts | 31° |
| 2026-04-24 16:03 | 40.19635 | -73.63982 | 21079 ft | 408 kts | 31° |
| 2026-04-24 16:03 | 40.21820 | -73.61626 | 20532 ft | 405 kts | 31° |
| 2026-04-24 16:03 | 40.23989 | -73.59287 | 20000 ft | 403 kts | 31° |
| 2026-04-24 16:03 | 40.26151 | -73.56955 | 19466 ft | 401 kts | 31° |
| 2026-04-24 16:04 | 40.28296 | -73.54635 | 18940 ft | 399 kts | 31° |
| 2026-04-24 16:04 | 40.30429 | -73.52328 | 18414 ft | 396 kts | 30° |
| 2026-04-24 16:04 | 40.32551 | -73.50031 | 17862 ft | 393 kts | 30° |
| 2026-04-24 16:04 | 40.34645 | -73.47762 | 17338 ft | 388 kts | 30° |
| 2026-04-24 16:05 | 40.39085 | -73.44792 | 16915 ft | 340 kts | 6° |
| 2026-04-24 16:05 | 40.41372 | -73.43996 | 16929 ft | 341 kts | 6° |
| 2026-04-24 16:06 | 40.45927 | -73.42342 | 16925 ft | 341 kts | 6° |
| 2026-04-24 16:06 | 40.48218 | -73.41522 | 16927 ft | 341 kts | 6° |
| 2026-04-24 16:06 | 40.52806 | -73.39882 | 17003 ft | 342 kts | 6° |
| 2026-04-24 16:07 | 40.55097 | -73.39056 | 17004 ft | 342 kts | 6° |
| 2026-04-24 16:07 | 40.57388 | -73.38231 | 17016 ft | 339 kts | 6° |
| 2026-04-24 16:07 | 40.61921 | -73.36602 | 17016 ft | 339 kts | 6° |
| 2026-04-24 16:08 | 40.64208 | -73.35778 | 17017 ft | 340 kts | 6° |
| 2026-04-24 16:08 | 40.68838 | -73.34108 | 16560 ft | 336 kts | 6° |
| 2026-04-24 16:09 | 40.73036 | -73.32565 | 15894 ft | 292 kts | 5° |
| 2026-04-24 16:09 | 40.74967 | -73.31883 | 15591 ft | 283 kts | 4° |
| 2026-04-24 16:09 | 40.76216 | -73.31440 | 15401 ft | 280 kts | 5° |
| 2026-04-24 16:09 | 40.78617 | -73.30056 | 14987 ft | 294 kts | 21° |
| 2026-04-24 16:10 | 40.82625 | -73.23361 | 14058 ft | 317 kts | 44° |
| 2026-04-24 16:11 | 40.85019 | -73.18509 | 13363 ft | 313 kts | 44° |
| 2026-04-24 16:11 | 40.86200 | -73.16110 | 13029 ft | 311 kts | 44° |
| 2026-04-24 16:11 | 40.87382 | -73.13702 | 12471 ft | 310 kts | 44° |
| 2026-04-24 16:12 | 40.89673 | -73.09019 | 11815 ft | 303 kts | 44° |
| 2026-04-24 16:12 | 40.90825 | -73.06678 | 11502 ft | 302 kts | 44° |
| 2026-04-24 16:12 | 40.93106 | -73.02014 | 10936 ft | 300 kts | 45° |
| 2026-04-24 16:13 | 40.94236 | -72.99699 | 10621 ft | 298 kts | 44° |
| 2026-04-24 16:13 | 40.96455 | -72.95159 | 10023 ft | 294 kts | 44° |
| 2026-04-24 16:14 | 40.98646 | -72.90660 | 9416 ft | 288 kts | 45° |
| 2026-04-24 16:14 | 40.99732 | -72.88435 | 9124 ft | 287 kts | 45° |
| 2026-04-24 16:14 | 41.01717 | -72.85064 | 8618 ft | 267 kts | 28° |
| 2026-04-24 16:15 | 41.02743 | -72.84177 | 8450 ft | 257 kts | 18° |
| 2026-04-24 16:15 | 41.07093 | -72.83514 | 7813 ft | 233 kts | 344° |
| 2026-04-24 16:16 | 41.09764 | -72.84208 | 7432 ft | 234 kts | 345° |
| 2026-04-24 16:16 | 41.11365 | -72.84613 | 7212 ft | 235 kts | 346° |
| 2026-04-24 16:17 | 41.15219 | -72.88331 | 6485 ft | 244 kts | 301° |
| 2026-04-24 16:17 | 41.15797 | -72.92861 | 6012 ft | 256 kts | 276° |
| 2026-04-24 16:18 | 41.15863 | -72.97555 | 5997 ft | 253 kts | 276° |
| 2026-04-24 16:18 | 41.15932 | -73.02240 | 6003 ft | 254 kts | 276° |
| 2026-04-24 16:18 | 41.15964 | -73.04595 | 6002 ft | 255 kts | 276° |
| 2026-04-24 16:19 | 41.16028 | -73.09289 | 5999 ft | 254 kts | 276° |
| 2026-04-24 16:19 | 41.16060 | -73.11630 | 6010 ft | 254 kts | 276° |
| 2026-04-24 16:20 | 41.16378 | -73.16250 | 6002 ft | 253 kts | 281° |
| 2026-04-24 16:20 | 41.16726 | -73.20907 | 6002 ft | 252 kts | 281° |
| 2026-04-24 16:20 | 41.16905 | -73.23215 | 6005 ft | 247 kts | 282° |
| 2026-04-24 16:21 | 41.17250 | -73.27686 | 6000 ft | 243 kts | 282° |
| 2026-04-24 16:21 | 41.17422 | -73.29923 | 6001 ft | 244 kts | 282° |
| 2026-04-24 16:21 | 41.17597 | -73.32193 | 5993 ft | 247 kts | 282° |
| 2026-04-24 16:22 | 41.17769 | -73.34469 | 5889 ft | 249 kts | 282° |
| 2026-04-24 16:22 | 41.18115 | -73.39032 | 5501 ft | 248 kts | 282° |
| 2026-04-24 16:22 | 41.18287 | -73.41312 | 5299 ft | 248 kts | 282° |
| 2026-04-24 16:23 | 41.18460 | -73.43600 | 5088 ft | 249 kts | 282° |
| 2026-04-24 16:23 | 41.18603 | -73.45868 | 4868 ft | 251 kts | 277° |
| 2026-04-24 16:23 | 41.18216 | -73.48187 | 4607 ft | 265 kts | 253° |
| 2026-04-24 16:24 | 41.15532 | -73.51534 | 4140 ft | 271 kts | 205° |
| 2026-04-24 16:24 | 41.13759 | -73.51897 | 3895 ft | 249 kts | 180° |
| 2026-04-24 16:24 | 41.12080 | -73.51592 | 3723 ft | 240 kts | 171° |
| 2026-04-24 16:24 | 41.10439 | -73.51243 | 3538 ft | 237 kts | 171° |
| 2026-04-24 16:25 | 41.08811 | -73.50908 | 3342 ft | 235 kts | 171° |
| 2026-04-24 16:25 | 41.07200 | -73.50573 | 3133 ft | 233 kts | 171° |
| 2026-04-24 16:25 | 41.05672 | -73.49951 | 2844 ft | 230 kts | 145° |
| 2026-04-24 16:26 | 41.04398 | -73.46395 | 2285 ft | 214 kts | 98° |
| 2026-04-24 16:26 | 41.04077 | -73.44460 | 2095 ft | 215 kts | 102° |
| 2026-04-24 16:26 | 41.01709 | -73.42227 | 1956 ft | 228 kts | 176° |
| 2026-04-24 16:27 | 41.00191 | -73.42754 | 1969 ft | 225 kts | 212° |
| 2026-04-24 16:27 | 40.99147 | -73.44236 | 2001 ft | 220 kts | 240° |
| 2026-04-24 16:27 | 40.98374 | -73.46003 | 2015 ft | 220 kts | 243° |
| 2026-04-24 16:27 | 40.97607 | -73.47756 | 2005 ft | 219 kts | 242° |
| 2026-04-24 16:28 | 40.96821 | -73.49501 | 2006 ft | 220 kts | 241° |
| 2026-04-24 16:28 | 40.96041 | -73.51231 | 2000 ft | 219 kts | 241° |
| 2026-04-24 16:28 | 40.94469 | -73.54734 | 2000 ft | 219 kts | 241° |
| 2026-04-24 16:29 | 40.93685 | -73.56486 | 1994 ft | 221 kts | 242° |
| 2026-04-24 16:29 | 40.93263 | -73.58395 | 1926 ft | 216 kts | 272° |
| 2026-04-24 16:29 | 40.94643 | -73.61457 | 1974 ft | 176 kts | 330° |
| 2026-04-24 16:30 | 40.96656 | -73.62996 | 1997 ft | 165 kts | 332° |
| 2026-04-24 16:30 | 40.97652 | -73.63760 | 1958 ft | 167 kts | 332° |
| 2026-04-24 16:30 | 40.98670 | -73.64537 | 1828 ft | 170 kts | 332° |
| 2026-04-24 16:31 | 40.99672 | -73.65302 | 1694 ft | 167 kts | 334° |
| 2026-04-24 16:31 | 41.00669 | -73.66065 | 1546 ft | 167 kts | 333° |
| 2026-04-24 16:31 | 41.01619 | -73.66790 | 1393 ft | 141 kts | 334° |
| 2026-04-24 16:31 | 41.02406 | -73.67394 | 1187 ft | 124 kts | 334° |
| 2026-04-24 16:32 | 41.03135 | -73.67957 | 1031 ft | 120 kts | 332° |
| 2026-04-24 16:32 | 41.03848 | -73.68513 | 910 ft | 120 kts | 330° |
| 2026-04-24 16:32 | 41.04578 | -73.69055 | 802 ft | 121 kts | 333° |
| 2026-04-24 16:32 | 41.05318 | -73.69615 | 579 ft | 124 kts | 331° |
| 2026-04-24 16:33 | 41.06054 | -73.70182 | 396 ft | 121 kts | 330° |
| 2026-04-24 16:33 | 41.06668 | -73.70652 | 403 ft | 73 kts | 330° |
| 2026-04-24 16:33 | 41.06964 | -73.70877 | 410 ft | 32 kts | 330° |
| 2026-04-24 16:33 | 41.07108 | -73.70961 | 409 ft | 17 kts | 6° |
| 2026-04-24 16:34 | 41.07196 | -73.70903 | 419 ft | 11 kts | 31° |
| 2026-04-24 16:34 | 41.07246 | -73.70867 | 422 ft | 7 kts | 16° |
| 2026-04-24 16:34 | 41.07296 | -73.70886 | 424 ft | 8 kts | 332° |
| 2026-04-24 16:34 | 41.07337 | -73.70917 | 426 ft | 7 kts | 330° |
| 2026-04-24 16:35 | 41.07371 | -73.70909 | 423 ft | 5 kts | 59° |
| 2026-04-24 16:35 | 41.07397 | -73.70870 | 428 ft | 5 kts | 15° |
| 2026-04-24 16:35 | 41.07412 | -73.70876 | 425 ft | 0 kts | 327° |